sensor_id;sensor_type;location;lat;lon;timestamp;P1;durP1;ratioP1;P2;durP2;ratioP2
69847;SDS011;57143;55.940;37.496;2022-10-19T00:00:43;6.23;;;1.80;;
69847;SDS011;57143;55.940;37.496;2022-10-19T00:03:10;6.35;;;2.35;;
69847;SDS011;57143;55.940;37.496;2022-10-19T00:05:37;6.97;;;2.15;;
69847;SDS011;57143;55.940;37.496;2022-10-19T00:08:04;6.30;;;1.95;;
69847;SDS011;57143;55.940;37.496;2022-10-19T00:10:32;6.43;;;2.17;;
69847;SDS011;57143;55.940;37.496;2022-10-19T00:12:59;6.57;;;1.87;;
69847;SDS011;57143;55.940;37.496;2022-10-19T00:15:26;5.82;;;1.95;;
69847;SDS011;57143;55.940;37.496;2022-10-19T00:17:55;6.47;;;1.95;;
69847;SDS011;57143;55.940;37.496;2022-10-19T00:20:22;6.05;;;2.03;;
69847;SDS011;57143;55.940;37.496;2022-10-19T00:22:49;6.38;;;2.00;;
69847;SDS011;57143;55.940;37.496;2022-10-19T00:25:16;7.20;;;1.87;;
69847;SDS011;57143;55.940;37.496;2022-10-19T00:27:43;7.00;;;2.00;;
69847;SDS011;57143;55.940;37.496;2022-10-19T00:30:10;5.35;;;1.70;;
69847;SDS011;57143;55.940;37.496;2022-10-19T00:32:37;5.38;;;1.63;;
69847;SDS011;57143;55.940;37.496;2022-10-19T00:35:06;5.40;;;1.50;;
69847;SDS011;57143;55.940;37.496;2022-10-19T00:37:33;6.67;;;1.83;;
69847;SDS011;57143;55.940;37.496;2022-10-19T00:40:00;6.03;;;1.83;;
69847;SDS011;57143;55.940;37.496;2022-10-19T00:42:29;7.05;;;1.30;;
69847;SDS011;57143;55.940;37.496;2022-10-19T00:44:58;5.78;;;1.70;;
69847;SDS011;57143;55.940;37.496;2022-10-19T00:47:29;5.95;;;1.70;;
69847;SDS011;57143;55.940;37.496;2022-10-19T00:49:57;5.57;;;1.73;;
69847;SDS011;57143;55.940;37.496;2022-10-19T00:52:26;5.40;;;1.70;;
69847;SDS011;57143;55.940;37.496;2022-10-19T00:54:55;5.03;;;1.50;;
69847;SDS011;57143;55.940;37.496;2022-10-19T00:57:25;5.72;;;1.80;;
69847;SDS011;57143;55.940;37.496;2022-10-19T00:59:55;6.20;;;2.10;;
69847;SDS011;57143;55.940;37.496;2022-10-19T01:02:24;5.33;;;1.90;;
69847;SDS011;57143;55.940;37.496;2022-10-19T01:04:51;6.75;;;2.33;;
69847;SDS011;57143;55.940;37.496;2022-10-19T01:07:19;5.63;;;2.08;;
69847;SDS011;57143;55.940;37.496;2022-10-19T01:09:48;6.03;;;2.03;;
69847;SDS011;57143;55.940;37.496;2022-10-19T01:12:19;6.50;;;1.95;;
69847;SDS011;57143;55.940;37.496;2022-10-19T01:15:01;7.07;;;2.13;;
69847;SDS011;57143;55.940;37.496;2022-10-19T01:17:40;5.50;;;1.88;;
69847;SDS011;57143;55.940;37.496;2022-10-19T01:20:20;6.03;;;2.53;;
69847;SDS011;57143;55.940;37.496;2022-10-19T01:23:15;7.03;;;2.13;;
69847;SDS011;57143;55.940;37.496;2022-10-19T01:26:03;6.88;;;2.15;;
69847;SDS011;57143;55.940;37.496;2022-10-19T01:28:44;6.20;;;2.00;;
69847;SDS011;57143;55.940;37.496;2022-10-19T01:31:21;6.03;;;1.77;;
69847;SDS011;57143;55.940;37.496;2022-10-19T01:33:53;5.53;;;1.83;;
69847;SDS011;57143;55.940;37.496;2022-10-19T01:36:30;5.45;;;1.75;;
69847;SDS011;57143;55.940;37.496;2022-10-19T01:39:04;5.78;;;1.85;;
69847;SDS011;57143;55.940;37.496;2022-10-19T01:41:40;6.50;;;2.00;;
69847;SDS011;57143;55.940;37.496;2022-10-19T01:44:15;5.65;;;1.75;;
69847;SDS011;57143;55.940;37.496;2022-10-19T01:46:50;5.57;;;1.67;;
69847;SDS011;57143;55.940;37.496;2022-10-19T01:49:22;5.38;;;1.65;;
69847;SDS011;57143;55.940;37.496;2022-10-19T01:51:56;5.50;;;1.63;;
69847;SDS011;57143;55.940;37.496;2022-10-19T01:54:26;6.20;;;2.00;;
69847;SDS011;57143;55.940;37.496;2022-10-19T01:56:56;4.88;;;1.48;;
69847;SDS011;57143;55.940;37.496;2022-10-19T01:59:27;5.70;;;1.55;;
69847;SDS011;57143;55.940;37.496;2022-10-19T02:01:56;5.40;;;1.60;;
69847;SDS011;57143;55.940;37.496;2022-10-19T02:04:24;5.38;;;1.88;;
69847;SDS011;57143;55.940;37.496;2022-10-19T02:06:52;5.77;;;1.73;;
69847;SDS011;57143;55.940;37.496;2022-10-19T02:09:20;6.10;;;2.10;;
69847;SDS011;57143;55.940;37.496;2022-10-19T02:11:48;6.68;;;2.22;;
69847;SDS011;57143;55.940;37.496;2022-10-19T02:14:18;5.40;;;1.60;;
69847;SDS011;57143;55.940;37.496;2022-10-19T02:16:48;6.78;;;2.22;;
69847;SDS011;57143;55.940;37.496;2022-10-19T02:19:20;5.27;;;1.67;;
69847;SDS011;57143;55.940;37.496;2022-10-19T02:21:48;5.70;;;1.65;;
69847;SDS011;57143;55.940;37.496;2022-10-19T02:24:16;5.10;;;1.48;;
69847;SDS011;57143;55.940;37.496;2022-10-19T02:26:45;5.53;;;1.52;;
69847;SDS011;57143;55.940;37.496;2022-10-19T02:29:12;5.22;;;1.73;;
69847;SDS011;57143;55.940;37.496;2022-10-19T02:31:40;7.53;;;2.00;;
69847;SDS011;57143;55.940;37.496;2022-10-19T02:34:08;7.72;;;1.88;;
69847;SDS011;57143;55.940;37.496;2022-10-19T02:36:37;7.07;;;1.88;;
69847;SDS011;57143;55.940;37.496;2022-10-19T02:39:05;5.72;;;1.80;;
69847;SDS011;57143;55.940;37.496;2022-10-19T02:41:33;6.68;;;1.70;;
69847;SDS011;57143;55.940;37.496;2022-10-19T02:44:05;6.67;;;1.40;;
69847;SDS011;57143;55.940;37.496;2022-10-19T02:46:39;5.93;;;1.83;;
69847;SDS011;57143;55.940;37.496;2022-10-19T02:49:10;5.60;;;1.55;;
69847;SDS011;57143;55.940;37.496;2022-10-19T02:51:53;7.55;;;1.85;;
69847;SDS011;57143;55.940;37.496;2022-10-19T02:54:22;5.03;;;1.42;;
69847;SDS011;57143;55.940;37.496;2022-10-19T02:56:50;6.17;;;1.70;;
69847;SDS011;57143;55.940;37.496;2022-10-19T02:59:17;5.45;;;1.75;;
69847;SDS011;57143;55.940;37.496;2022-10-19T03:01:44;5.50;;;1.83;;
69847;SDS011;57143;55.940;37.496;2022-10-19T03:04:11;6.88;;;2.05;;
69847;SDS011;57143;55.940;37.496;2022-10-19T03:06:39;6.38;;;2.20;;
69847;SDS011;57143;55.940;37.496;2022-10-19T03:09:07;5.73;;;1.80;;
69847;SDS011;57143;55.940;37.496;2022-10-19T03:11:34;6.55;;;1.80;;
69847;SDS011;57143;55.940;37.496;2022-10-19T03:14:01;5.22;;;1.70;;
69847;SDS011;57143;55.940;37.496;2022-10-19T03:16:28;6.00;;;1.60;;
69847;SDS011;57143;55.940;37.496;2022-10-19T03:18:55;6.32;;;1.80;;
69847;SDS011;57143;55.940;37.496;2022-10-19T03:21:24;9.03;;;2.30;;
69847;SDS011;57143;55.940;37.496;2022-10-19T03:23:53;5.70;;;1.98;;
69847;SDS011;57143;55.940;37.496;2022-10-19T03:26:20;5.25;;;1.30;;
69847;SDS011;57143;55.940;37.496;2022-10-19T03:28:47;7.07;;;2.30;;
69847;SDS011;57143;55.940;37.496;2022-10-19T03:31:14;6.28;;;1.60;;
69847;SDS011;57143;55.940;37.496;2022-10-19T03:33:41;7.93;;;2.00;;
69847;SDS011;57143;55.940;37.496;2022-10-19T03:36:12;5.55;;;1.60;;
69847;SDS011;57143;55.940;37.496;2022-10-19T03:38:40;6.15;;;2.00;;
69847;SDS011;57143;55.940;37.496;2022-10-19T03:41:08;5.88;;;1.70;;
69847;SDS011;57143;55.940;37.496;2022-10-19T03:43:36;6.35;;;2.17;;
69847;SDS011;57143;55.940;37.496;2022-10-19T03:46:05;7.93;;;2.10;;
69847;SDS011;57143;55.940;37.496;2022-10-19T03:48:32;5.80;;;2.10;;
69847;SDS011;57143;55.940;37.496;2022-10-19T03:50:59;6.60;;;2.10;;
69847;SDS011;57143;55.940;37.496;2022-10-19T03:53:28;8.32;;;2.22;;
69847;SDS011;57143;55.940;37.496;2022-10-19T03:55:59;6.72;;;2.00;;
69847;SDS011;57143;55.940;37.496;2022-10-19T03:58:29;6.23;;;1.87;;
69847;SDS011;57143;55.940;37.496;2022-10-19T04:00:57;8.70;;;2.10;;
69847;SDS011;57143;55.940;37.496;2022-10-19T04:03:25;8.45;;;2.40;;
69847;SDS011;57143;55.940;37.496;2022-10-19T04:05:52;7.07;;;2.30;;
69847;SDS011;57143;55.940;37.496;2022-10-19T04:08:28;6.18;;;2.03;;
69847;SDS011;57143;55.940;37.496;2022-10-19T04:10:57;8.33;;;3.07;;
69847;SDS011;57143;55.940;37.496;2022-10-19T04:13:26;8.85;;;2.80;;
69847;SDS011;57143;55.940;37.496;2022-10-19T04:15:55;7.70;;;2.88;;
69847;SDS011;57143;55.940;37.496;2022-10-19T04:18:22;8.63;;;2.65;;
69847;SDS011;57143;55.940;37.496;2022-10-19T04:20:54;9.15;;;3.33;;
69847;SDS011;57143;55.940;37.496;2022-10-19T04:23:21;7.07;;;2.10;;
69847;SDS011;57143;55.940;37.496;2022-10-19T04:25:49;7.35;;;2.80;;
69847;SDS011;57143;55.940;37.496;2022-10-19T04:28:16;8.55;;;2.60;;
69847;SDS011;57143;55.940;37.496;2022-10-19T04:30:43;7.35;;;2.58;;
69847;SDS011;57143;55.940;37.496;2022-10-19T04:33:11;6.72;;;2.22;;
69847;SDS011;57143;55.940;37.496;2022-10-19T04:35:38;8.07;;;2.30;;
69847;SDS011;57143;55.940;37.496;2022-10-19T04:38:05;7.20;;;2.22;;
69847;SDS011;57143;55.940;37.496;2022-10-19T04:40:33;5.65;;;1.70;;
69847;SDS011;57143;55.940;37.496;2022-10-19T04:43:01;6.35;;;2.25;;
69847;SDS011;57143;55.940;37.496;2022-10-19T04:45:29;6.25;;;2.15;;
69847;SDS011;57143;55.940;37.496;2022-10-19T04:47:58;7.60;;;2.33;;
69847;SDS011;57143;55.940;37.496;2022-10-19T04:50:33;5.95;;;2.00;;
69847;SDS011;57143;55.940;37.496;2022-10-19T04:53:00;7.10;;;2.10;;
69847;SDS011;57143;55.940;37.496;2022-10-19T04:55:27;7.32;;;2.17;;
69847;SDS011;57143;55.940;37.496;2022-10-19T04:57:56;7.63;;;2.33;;
69847;SDS011;57143;55.940;37.496;2022-10-19T05:00:23;6.67;;;2.00;;
69847;SDS011;57143;55.940;37.496;2022-10-19T05:02:50;7.32;;;2.50;;
69847;SDS011;57143;55.940;37.496;2022-10-19T05:05:17;8.73;;;2.90;;
69847;SDS011;57143;55.940;37.496;2022-10-19T05:07:47;7.40;;;2.42;;
69847;SDS011;57143;55.940;37.496;2022-10-19T05:10:14;6.65;;;2.38;;
69847;SDS011;57143;55.940;37.496;2022-10-19T05:12:41;6.87;;;2.37;;
69847;SDS011;57143;55.940;37.496;2022-10-19T05:15:08;11.15;;;2.20;;
69847;SDS011;57143;55.940;37.496;2022-10-19T05:17:36;7.50;;;2.30;;
69847;SDS011;57143;55.940;37.496;2022-10-19T05:20:03;6.68;;;2.58;;
69847;SDS011;57143;55.940;37.496;2022-10-19T05:22:31;8.35;;;2.50;;
69847;SDS011;57143;55.940;37.496;2022-10-19T05:25:00;8.73;;;2.87;;
69847;SDS011;57143;55.940;37.496;2022-10-19T05:27:28;8.75;;;2.65;;
69847;SDS011;57143;55.940;37.496;2022-10-19T05:29:55;7.72;;;2.70;;
69847;SDS011;57143;55.940;37.496;2022-10-19T05:32:22;7.38;;;3.00;;
69847;SDS011;57143;55.940;37.496;2022-10-19T05:34:49;7.53;;;2.35;;
69847;SDS011;57143;55.940;37.496;2022-10-19T05:37:16;8.30;;;2.77;;
69847;SDS011;57143;55.940;37.496;2022-10-19T05:39:43;7.70;;;2.97;;
69847;SDS011;57143;55.940;37.496;2022-10-19T05:42:11;10.18;;;3.15;;
69847;SDS011;57143;55.940;37.496;2022-10-19T05:44:40;8.55;;;2.95;;
69847;SDS011;57143;55.940;37.496;2022-10-19T05:47:07;8.88;;;3.30;;
69847;SDS011;57143;55.940;37.496;2022-10-19T05:49:34;9.57;;;3.70;;
69847;SDS011;57143;55.940;37.496;2022-10-19T05:52:01;9.57;;;3.75;;
69847;SDS011;57143;55.940;37.496;2022-10-19T05:54:29;10.35;;;3.83;;
69847;SDS011;57143;55.940;37.496;2022-10-19T05:56:56;8.70;;;3.47;;
69847;SDS011;57143;55.940;37.496;2022-10-19T05:59:25;10.02;;;3.60;;
69847;SDS011;57143;55.940;37.496;2022-10-19T06:01:52;9.30;;;3.30;;
69847;SDS011;57143;55.940;37.496;2022-10-19T06:04:19;9.90;;;3.35;;
69847;SDS011;57143;55.940;37.496;2022-10-19T06:06:46;9.38;;;3.10;;
69847;SDS011;57143;55.940;37.496;2022-10-19T06:09:13;9.13;;;3.47;;
69847;SDS011;57143;55.940;37.496;2022-10-19T06:11:41;9.98;;;3.58;;
69847;SDS011;57143;55.940;37.496;2022-10-19T06:14:10;9.43;;;3.23;;
69847;SDS011;57143;55.940;37.496;2022-10-19T06:16:40;9.10;;;2.88;;
69847;SDS011;57143;55.940;37.496;2022-10-19T06:19:07;10.18;;;3.53;;
69847;SDS011;57143;55.940;37.496;2022-10-19T06:21:34;8.70;;;3.22;;
69847;SDS011;57143;55.940;37.496;2022-10-19T06:24:01;9.98;;;3.47;;
69847;SDS011;57143;55.940;37.496;2022-10-19T06:26:31;9.50;;;3.50;;
69847;SDS011;57143;55.940;37.496;2022-10-19T06:28:59;10.15;;;4.10;;
69847;SDS011;57143;55.940;37.496;2022-10-19T06:31:27;9.30;;;3.65;;
69847;SDS011;57143;55.940;37.496;2022-10-19T06:33:56;12.77;;;3.97;;
69847;SDS011;57143;55.940;37.496;2022-10-19T06:36:24;9.27;;;3.75;;
69847;SDS011;57143;55.940;37.496;2022-10-19T06:38:53;11.63;;;4.40;;
69847;SDS011;57143;55.940;37.496;2022-10-19T06:41:20;12.32;;;4.20;;
69847;SDS011;57143;55.940;37.496;2022-10-19T06:43:48;11.70;;;4.57;;
69847;SDS011;57143;55.940;37.496;2022-10-19T06:46:16;13.13;;;4.70;;
69847;SDS011;57143;55.940;37.496;2022-10-19T06:48:48;11.30;;;4.78;;
69847;SDS011;57143;55.940;37.496;2022-10-19T06:51:18;12.33;;;5.07;;
69847;SDS011;57143;55.940;37.496;2022-10-19T06:53:45;13.27;;;5.63;;
69847;SDS011;57143;55.940;37.496;2022-10-19T06:56:12;11.50;;;4.88;;
69847;SDS011;57143;55.940;37.496;2022-10-19T06:58:39;11.05;;;4.65;;
69847;SDS011;57143;55.940;37.496;2022-10-19T07:01:07;11.00;;;4.60;;
69847;SDS011;57143;55.940;37.496;2022-10-19T07:03:36;10.47;;;4.43;;
69847;SDS011;57143;55.940;37.496;2022-10-19T07:06:03;12.07;;;4.65;;
69847;SDS011;57143;55.940;37.496;2022-10-19T07:08:33;10.43;;;4.60;;
69847;SDS011;57143;55.940;37.496;2022-10-19T07:11:02;12.82;;;4.75;;
69847;SDS011;57143;55.940;37.496;2022-10-19T07:13:31;12.00;;;4.90;;
69847;SDS011;57143;55.940;37.496;2022-10-19T07:15:59;11.13;;;4.37;;
69847;SDS011;57143;55.940;37.496;2022-10-19T07:18:27;12.02;;;4.38;;
69847;SDS011;57143;55.940;37.496;2022-10-19T07:20:54;10.40;;;4.40;;
69847;SDS011;57143;55.940;37.496;2022-10-19T07:23:22;11.52;;;4.43;;
69847;SDS011;57143;55.940;37.496;2022-10-19T07:25:52;11.00;;;4.10;;
69847;SDS011;57143;55.940;37.496;2022-10-19T07:28:25;11.37;;;5.17;;
69847;SDS011;57143;55.940;37.496;2022-10-19T07:30:53;12.68;;;5.03;;
69847;SDS011;57143;55.940;37.496;2022-10-19T07:33:20;11.43;;;5.22;;
69847;SDS011;57143;55.940;37.496;2022-10-19T07:35:48;12.52;;;4.95;;
69847;SDS011;57143;55.940;37.496;2022-10-19T07:38:15;14.40;;;5.85;;
69847;SDS011;57143;55.940;37.496;2022-10-19T07:40:42;12.00;;;5.40;;
69847;SDS011;57143;55.940;37.496;2022-10-19T07:43:10;12.88;;;6.00;;
69847;SDS011;57143;55.940;37.496;2022-10-19T07:45:37;13.30;;;5.63;;
69847;SDS011;57143;55.940;37.496;2022-10-19T07:48:04;12.30;;;5.40;;
69847;SDS011;57143;55.940;37.496;2022-10-19T07:50:31;15.98;;;6.50;;
69847;SDS011;57143;55.940;37.496;2022-10-19T07:52:59;13.27;;;6.03;;
69847;SDS011;57143;55.940;37.496;2022-10-19T07:55:27;14.35;;;6.13;;
69847;SDS011;57143;55.940;37.496;2022-10-19T07:57:54;13.43;;;6.05;;
69847;SDS011;57143;55.940;37.496;2022-10-19T08:00:27;11.32;;;5.15;;
69847;SDS011;57143;55.940;37.496;2022-10-19T08:02:54;12.10;;;5.07;;
69847;SDS011;57143;55.940;37.496;2022-10-19T08:05:21;11.30;;;4.93;;
69847;SDS011;57143;55.940;37.496;2022-10-19T08:07:48;11.93;;;4.80;;
69847;SDS011;57143;55.940;37.496;2022-10-19T08:10:15;11.48;;;4.72;;
69847;SDS011;57143;55.940;37.496;2022-10-19T08:12:42;10.55;;;4.85;;
69847;SDS011;57143;55.940;37.496;2022-10-19T08:15:09;11.95;;;4.70;;
69847;SDS011;57143;55.940;37.496;2022-10-19T08:17:37;10.40;;;4.47;;
69847;SDS011;57143;55.940;37.496;2022-10-19T08:20:05;11.55;;;5.18;;
69847;SDS011;57143;55.940;37.496;2022-10-19T08:22:33;10.82;;;4.85;;
69847;SDS011;57143;55.940;37.496;2022-10-19T08:25:00;11.25;;;5.10;;
69847;SDS011;57143;55.940;37.496;2022-10-19T08:27:29;14.82;;;5.35;;
69847;SDS011;57143;55.940;37.496;2022-10-19T08:29:56;12.20;;;5.57;;
69847;SDS011;57143;55.940;37.496;2022-10-19T08:32:23;12.38;;;4.80;;
69847;SDS011;57143;55.940;37.496;2022-10-19T08:34:51;12.65;;;5.80;;
69847;SDS011;57143;55.940;37.496;2022-10-19T08:37:18;13.93;;;5.07;;
69847;SDS011;57143;55.940;37.496;2022-10-19T08:39:45;11.73;;;5.40;;
69847;SDS011;57143;55.940;37.496;2022-10-19T08:42:14;13.80;;;5.93;;
69847;SDS011;57143;55.940;37.496;2022-10-19T08:44:53;14.02;;;5.70;;
69847;SDS011;57143;55.940;37.496;2022-10-19T08:50:31;17.70;;;5.95;;
69847;SDS011;57143;55.940;37.496;2022-10-19T08:53:03;12.35;;;5.40;;
69847;SDS011;57143;55.940;37.496;2022-10-19T08:55:39;11.13;;;4.80;;
69847;SDS011;57143;55.940;37.496;2022-10-19T08:58:15;12.13;;;4.68;;
69847;SDS011;57143;55.940;37.496;2022-10-19T09:00:50;11.57;;;4.95;;
69847;SDS011;57143;55.940;37.496;2022-10-19T09:03:24;10.77;;;4.50;;
69847;SDS011;57143;55.940;37.496;2022-10-19T09:06:00;10.63;;;4.25;;
69847;SDS011;57143;55.940;37.496;2022-10-19T09:08:37;8.87;;;3.50;;
69847;SDS011;57143;55.940;37.496;2022-10-19T09:11:04;9.10;;;3.40;;
69847;SDS011;57143;55.940;37.496;2022-10-19T09:13:39;9.38;;;3.90;;
69847;SDS011;57143;55.940;37.496;2022-10-19T09:16:10;8.93;;;3.65;;
69847;SDS011;57143;55.940;37.496;2022-10-19T09:18:39;9.68;;;3.80;;
69847;SDS011;57143;55.940;37.496;2022-10-19T09:21:10;8.70;;;3.97;;
69847;SDS011;57143;55.940;37.496;2022-10-19T09:23:41;12.15;;;4.10;;
69847;SDS011;57143;55.940;37.496;2022-10-19T09:26:14;9.75;;;3.80;;
69847;SDS011;57143;55.940;37.496;2022-10-19T09:28:45;10.95;;;4.07;;
69847;SDS011;57143;55.940;37.496;2022-10-19T09:31:20;10.10;;;3.80;;
69847;SDS011;57143;55.940;37.496;2022-10-19T09:33:54;10.60;;;3.93;;
69847;SDS011;57143;55.940;37.496;2022-10-19T09:36:28;12.88;;;5.03;;
69847;SDS011;57143;55.940;37.496;2022-10-19T09:39:01;12.98;;;5.05;;
69847;SDS011;57143;55.940;37.496;2022-10-19T09:41:28;13.50;;;5.63;;
69847;SDS011;57143;55.940;37.496;2022-10-19T09:43:56;12.77;;;5.50;;
69847;SDS011;57143;55.940;37.496;2022-10-19T09:46:32;10.43;;;4.50;;
69847;SDS011;57143;55.940;37.496;2022-10-19T09:49:07;10.90;;;4.35;;
69847;SDS011;57143;55.940;37.496;2022-10-19T09:51:39;10.20;;;4.07;;
69847;SDS011;57143;55.940;37.496;2022-10-19T09:54:30;13.25;;;4.88;;
69847;SDS011;57143;55.940;37.496;2022-10-19T09:57:00;8.60;;;3.10;;
69847;SDS011;57143;55.940;37.496;2022-10-19T09:59:29;7.90;;;3.30;;
69847;SDS011;57143;55.940;37.496;2022-10-19T10:02:05;8.60;;;3.08;;
69847;SDS011;57143;55.940;37.496;2022-10-19T10:04:44;10.23;;;3.72;;
69847;SDS011;57143;55.940;37.496;2022-10-19T10:07:14;10.63;;;3.47;;
69847;SDS011;57143;55.940;37.496;2022-10-19T10:09:43;12.27;;;4.32;;
69847;SDS011;57143;55.940;37.496;2022-10-19T10:12:12;12.00;;;4.07;;
69847;SDS011;57143;55.940;37.496;2022-10-19T10:14:41;10.73;;;3.78;;
69847;SDS011;57143;55.940;37.496;2022-10-19T10:17:13;12.20;;;4.10;;
69847;SDS011;57143;55.940;37.496;2022-10-19T10:19:50;10.27;;;3.55;;
69847;SDS011;57143;55.940;37.496;2022-10-19T10:22:31;11.65;;;4.13;;
69847;SDS011;57143;55.940;37.496;2022-10-19T10:25:01;9.43;;;3.27;;
69847;SDS011;57143;55.940;37.496;2022-10-19T10:27:38;9.80;;;3.80;;
69847;SDS011;57143;55.940;37.496;2022-10-19T10:30:06;10.60;;;3.63;;
69847;SDS011;57143;55.940;37.496;2022-10-19T10:32:35;7.75;;;2.10;;
69847;SDS011;57143;55.940;37.496;2022-10-19T10:35:05;7.45;;;2.65;;
69847;SDS011;57143;55.940;37.496;2022-10-19T10:37:43;9.80;;;3.00;;
69847;SDS011;57143;55.940;37.496;2022-10-19T10:40:16;10.63;;;2.70;;
69847;SDS011;57143;55.940;37.496;2022-10-19T10:42:47;10.48;;;3.17;;
69847;SDS011;57143;55.940;37.496;2022-10-19T10:45:16;7.30;;;2.53;;
69847;SDS011;57143;55.940;37.496;2022-10-19T10:47:46;7.88;;;3.03;;
69847;SDS011;57143;55.940;37.496;2022-10-19T10:50:19;9.63;;;3.20;;
69847;SDS011;57143;55.940;37.496;2022-10-19T10:52:57;10.93;;;3.15;;
69847;SDS011;57143;55.940;37.496;2022-10-19T10:55:25;10.10;;;3.50;;
69847;SDS011;57143;55.940;37.496;2022-10-19T10:57:57;6.70;;;2.20;;
69847;SDS011;57143;55.940;37.496;2022-10-19T11:00:32;5.82;;;2.10;;
69847;SDS011;57143;55.940;37.496;2022-10-19T11:03:04;7.43;;;2.60;;
69847;SDS011;57143;55.940;37.496;2022-10-19T11:05:37;7.35;;;2.17;;
69847;SDS011;57143;55.940;37.496;2022-10-19T11:08:13;8.23;;;2.70;;
69847;SDS011;57143;55.940;37.496;2022-10-19T11:10:48;6.82;;;2.15;;
69847;SDS011;57143;55.940;37.496;2022-10-19T11:13:20;6.53;;;2.47;;
69847;SDS011;57143;55.940;37.496;2022-10-19T11:15:53;7.97;;;2.77;;
69847;SDS011;57143;55.940;37.496;2022-10-19T11:18:24;7.97;;;3.20;;
69847;SDS011;57143;55.940;37.496;2022-10-19T11:20:58;8.65;;;2.95;;
69847;SDS011;57143;55.940;37.496;2022-10-19T11:23:40;8.63;;;3.45;;
69847;SDS011;57143;55.940;37.496;2022-10-19T11:26:21;8.10;;;3.20;;
69847;SDS011;57143;55.940;37.496;2022-10-19T11:29:01;8.53;;;3.20;;
69847;SDS011;57143;55.940;37.496;2022-10-19T11:31:39;7.53;;;2.42;;
69847;SDS011;57143;55.940;37.496;2022-10-19T11:34:14;8.25;;;3.00;;
69847;SDS011;57143;55.940;37.496;2022-10-19T11:37:04;7.80;;;2.72;;
69847;SDS011;57143;55.940;37.496;2022-10-19T11:39:45;6.55;;;2.65;;
69847;SDS011;57143;55.940;37.496;2022-10-19T11:42:25;5.70;;;1.93;;
69847;SDS011;57143;55.940;37.496;2022-10-19T11:45:08;6.75;;;2.00;;
69847;SDS011;57143;55.940;37.496;2022-10-19T11:47:48;6.25;;;1.85;;
69847;SDS011;57143;55.940;37.496;2022-10-19T11:50:36;6.60;;;1.70;;
69847;SDS011;57143;55.940;37.496;2022-10-19T11:53:12;5.95;;;1.90;;
69847;SDS011;57143;55.940;37.496;2022-10-19T11:55:50;8.37;;;2.00;;
69847;SDS011;57143;55.940;37.496;2022-10-19T11:58:37;6.03;;;2.03;;
69847;SDS011;57143;55.940;37.496;2022-10-19T12:01:15;5.90;;;1.77;;
69847;SDS011;57143;55.940;37.496;2022-10-19T12:06:48;6.00;;;2.10;;
69847;SDS011;57143;55.940;37.496;2022-10-19T12:09:27;6.43;;;2.20;;
69847;SDS011;57143;55.940;37.496;2022-10-19T12:12:10;7.55;;;2.20;;
69847;SDS011;57143;55.940;37.496;2022-10-19T12:14:46;7.93;;;3.20;;
69847;SDS011;57143;55.940;37.496;2022-10-19T12:17:19;7.45;;;3.17;;
69847;SDS011;57143;55.940;37.496;2022-10-19T12:19:52;7.47;;;3.15;;
69847;SDS011;57143;55.940;37.496;2022-10-19T12:22:24;8.10;;;2.60;;
69847;SDS011;57143;55.940;37.496;2022-10-19T12:24:54;6.30;;;2.20;;
69847;SDS011;57143;55.940;37.496;2022-10-19T12:27:28;9.38;;;2.10;;
69847;SDS011;57143;55.940;37.496;2022-10-19T12:30:00;7.60;;;2.00;;
69847;SDS011;57143;55.940;37.496;2022-10-19T12:32:31;6.15;;;2.20;;
69847;SDS011;57143;55.940;37.496;2022-10-19T12:35:08;7.57;;;3.00;;
69847;SDS011;57143;55.940;37.496;2022-10-19T12:37:48;7.90;;;2.90;;
69847;SDS011;57143;55.940;37.496;2022-10-19T12:40:22;7.60;;;3.13;;
69847;SDS011;57143;55.940;37.496;2022-10-19T12:43:03;9.20;;;4.18;;
69847;SDS011;57143;55.940;37.496;2022-10-19T12:45:37;9.65;;;3.40;;
69847;SDS011;57143;55.940;37.496;2022-10-19T12:48:20;9.60;;;3.90;;
69847;SDS011;57143;55.940;37.496;2022-10-19T12:51:07;7.45;;;2.95;;
69847;SDS011;57143;55.940;37.496;2022-10-19T12:53:41;8.45;;;3.05;;
69847;SDS011;57143;55.940;37.496;2022-10-19T12:56:16;8.10;;;3.28;;
69847;SDS011;57143;55.940;37.496;2022-10-19T12:58:49;8.43;;;3.15;;
69847;SDS011;57143;55.940;37.496;2022-10-19T13:01:21;9.33;;;2.93;;
69847;SDS011;57143;55.940;37.496;2022-10-19T13:03:52;8.90;;;3.30;;
69847;SDS011;57143;55.940;37.496;2022-10-19T13:06:33;9.30;;;3.25;;
69847;SDS011;57143;55.940;37.496;2022-10-19T13:09:03;7.93;;;3.05;;
69847;SDS011;57143;55.940;37.496;2022-10-19T13:11:32;9.75;;;4.10;;
69847;SDS011;57143;55.940;37.496;2022-10-19T13:14:02;10.60;;;4.20;;
69847;SDS011;57143;55.940;37.496;2022-10-19T13:16:41;10.98;;;3.80;;
69847;SDS011;57143;55.940;37.496;2022-10-19T13:19:22;8.20;;;3.13;;
69847;SDS011;57143;55.940;37.496;2022-10-19T13:21:55;8.60;;;3.05;;
69847;SDS011;57143;55.940;37.496;2022-10-19T13:27:45;6.37;;;2.00;;
69847;SDS011;57143;55.940;37.496;2022-10-19T13:36:10;5.53;;;1.63;;
69847;SDS011;57143;55.940;37.496;2022-10-19T13:38:38;6.32;;;1.58;;
69847;SDS011;57143;55.940;37.496;2022-10-19T13:41:09;5.30;;;1.70;;
69847;SDS011;57143;55.940;37.496;2022-10-19T13:43:51;7.50;;;1.77;;
69847;SDS011;57143;55.940;37.496;2022-10-19T13:46:43;5.40;;;1.75;;
69847;SDS011;57143;55.940;37.496;2022-10-19T13:49:30;6.85;;;1.60;;
69847;SDS011;57143;55.940;37.496;2022-10-19T13:52:21;6.97;;;1.67;;
69847;SDS011;57143;55.940;37.496;2022-10-19T13:55:23;6.30;;;1.80;;
69847;SDS011;57143;55.940;37.496;2022-10-19T13:58:14;6.82;;;2.30;;
69847;SDS011;57143;55.940;37.496;2022-10-19T14:00:59;8.55;;;2.95;;
69847;SDS011;57143;55.940;37.496;2022-10-19T14:03:37;8.45;;;3.53;;
69847;SDS011;57143;55.940;37.496;2022-10-19T14:06:20;8.05;;;3.33;;
69847;SDS011;57143;55.940;37.496;2022-10-19T14:09:00;6.60;;;2.90;;
69847;SDS011;57143;55.940;37.496;2022-10-19T14:11:51;9.63;;;3.80;;
69847;SDS011;57143;55.940;37.496;2022-10-19T14:14:20;8.30;;;3.42;;
69847;SDS011;57143;55.940;37.496;2022-10-19T14:16:52;9.13;;;3.17;;
69847;SDS011;57143;55.940;37.496;2022-10-19T14:19:23;6.93;;;3.17;;
69847;SDS011;57143;55.940;37.496;2022-10-19T14:21:54;9.07;;;3.73;;
69847;SDS011;57143;55.940;37.496;2022-10-19T14:24:26;8.75;;;3.40;;
69847;SDS011;57143;55.940;37.496;2022-10-19T14:26:56;8.13;;;3.22;;
69847;SDS011;57143;55.940;37.496;2022-10-19T14:29:24;8.30;;;3.33;;
69847;SDS011;57143;55.940;37.496;2022-10-19T14:31:51;8.80;;;3.50;;
69847;SDS011;57143;55.940;37.496;2022-10-19T14:34:18;8.23;;;3.70;;
69847;SDS011;57143;55.940;37.496;2022-10-19T14:36:47;7.88;;;3.38;;
69847;SDS011;57143;55.940;37.496;2022-10-19T14:39:24;9.73;;;2.88;;
69847;SDS011;57143;55.940;37.496;2022-10-19T14:41:55;9.93;;;3.67;;
69847;SDS011;57143;55.940;37.496;2022-10-19T14:44:34;7.53;;;3.40;;
69847;SDS011;57143;55.940;37.496;2022-10-19T14:47:14;10.57;;;4.17;;
69847;SDS011;57143;55.940;37.496;2022-10-19T14:49:43;10.45;;;3.50;;
69847;SDS011;57143;55.940;37.496;2022-10-19T14:52:11;10.43;;;4.55;;
69847;SDS011;57143;55.940;37.496;2022-10-19T14:54:44;10.35;;;3.70;;
69847;SDS011;57143;55.940;37.496;2022-10-19T14:57:14;10.32;;;4.28;;
69847;SDS011;57143;55.940;37.496;2022-10-19T14:59:48;10.50;;;4.20;;
69847;SDS011;57143;55.940;37.496;2022-10-19T15:02:17;8.20;;;3.30;;
69847;SDS011;57143;55.940;37.496;2022-10-19T15:04:47;10.10;;;4.10;;
69847;SDS011;57143;55.940;37.496;2022-10-19T15:07:17;13.07;;;4.28;;
69847;SDS011;57143;55.940;37.496;2022-10-19T15:09:51;9.55;;;3.72;;